Terminal Aerodrome Forecast
Issued by NWS

Home | Current Version | Previous Version | Text Only | Print | Product List | Glossary On
Versions: 1 2 3 4 5 6 7 8 9 10 11 12 13 14 15 16
000
FTUS43 KEAX 310834 AAA
TAFSTJ
TAF AMD
KSTJ 310834Z 3109/0106 15006KT 2SM BR SCT015
      TEMPO 3109/3113 1/4SM FG
     FM311400 16009KT P6SM SCT050
     FM311800 18012G16KT P6SM SCT050
     FM010000 16008KT P6SM SKC=

USA.gov is the U.S. government's official web portal to all federal, state and local government web resources and services.